createdAt,value
2023-12-19T00:05:41.997Z,39.00
2023-12-19T00:15:38.997Z,32.40
2023-12-19T00:25:39.441Z,33.70
2023-12-19T00:35:42.198Z,32.20
2023-12-19T00:45:48.149Z,30.70
2023-12-19T00:55:39.091Z,29.60
2023-12-19T01:05:39.010Z,28.20
2023-12-19T01:15:39.001Z,34.10
2023-12-19T01:25:38.958Z,29.30
2023-12-19T01:35:38.966Z,31.60
2023-12-19T01:45:38.969Z,28.20
2023-12-19T01:55:38.983Z,27.10
2023-12-19T02:05:39.047Z,25.20
2023-12-19T02:15:39.015Z,25.30
2023-12-19T02:25:38.999Z,28.80
2023-12-19T02:35:38.983Z,27.00
2023-12-19T02:45:39.042Z,27.50
2023-12-19T02:55:39.012Z,27.30
2023-12-19T03:05:38.993Z,24.10
2023-12-19T03:15:39.001Z,28.20
2023-12-19T03:25:39.015Z,22.80
2023-12-19T03:35:39.000Z,23.50
2023-12-19T03:45:39.050Z,24.10
2023-12-19T03:55:39.026Z,24.20
2023-12-19T04:05:41.890Z,23.60
2023-12-19T04:15:39.125Z,24.00
2023-12-19T04:25:39.081Z,21.50
2023-12-19T04:35:39.079Z,19.80
2023-12-19T04:45:39.114Z,20.40
2023-12-19T04:55:43.301Z,22.10
2023-12-19T05:05:39.092Z,18.20
2023-12-19T05:15:39.085Z,17.50
2023-12-19T05:25:39.095Z,15.60
2023-12-19T05:35:39.055Z,15.70
2023-12-19T05:45:39.127Z,18.70
2023-12-19T05:55:39.069Z,15.90
2023-12-19T06:05:39.171Z,16.90
2023-12-19T06:15:39.160Z,16.00
2023-12-19T06:25:39.096Z,16.30
2023-12-19T06:35:39.151Z,18.40
2023-12-19T06:45:39.183Z,17.20
2023-12-19T06:55:39.133Z,14.50
2023-12-19T07:05:39.092Z,15.50
2023-12-19T07:15:39.125Z,14.20
2023-12-19T07:25:39.099Z,13.30
2023-12-19T07:35:39.096Z,10.90
2023-12-19T07:45:39.167Z,8.90
2023-12-19T07:55:39.117Z,10.60
2023-12-19T08:05:39.210Z,8.50
2023-12-19T08:15:39.153Z,9.30
2023-12-19T08:25:41.284Z,9.70
2023-12-19T08:35:39.239Z,11.10
2023-12-19T08:45:39.157Z,11.50
2023-12-19T08:55:39.128Z,10.40
2023-12-19T09:05:39.403Z,14.00
2023-12-19T09:15:39.280Z,21.20
2023-12-19T09:25:39.146Z,13.10
2023-12-19T09:35:39.167Z,13.70
2023-12-19T09:45:39.278Z,13.80
2023-12-19T09:55:39.139Z,8.80
2023-12-19T10:05:39.219Z,12.50
2023-12-19T10:15:39.151Z,7.60
2023-12-19T10:25:45.525Z,9.40
2023-12-19T10:35:39.176Z,9.20
2023-12-19T10:45:39.208Z,12.20
2023-12-19T10:55:39.172Z,8.30
2023-12-19T11:05:39.203Z,11.50
2023-12-19T11:15:39.209Z,11.90
2023-12-19T11:25:39.430Z,11.30
2023-12-19T11:35:39.204Z,10.50
2023-12-19T11:45:42.527Z,10.50
2023-12-19T11:55:39.218Z,12.30
2023-12-19T12:05:39.210Z,13.40
2023-12-19T12:15:39.246Z,12.30
2023-12-19T12:25:39.429Z,12.30
2023-12-19T12:35:39.215Z,10.60
2023-12-19T12:45:39.331Z,11.00
2023-12-19T12:55:39.196Z,13.80
2023-12-19T13:15:39.245Z,12.40
2023-12-19T13:25:39.236Z,13.20
2023-12-19T13:35:39.228Z,9.80
2023-12-19T13:45:40.485Z,9.10
2023-12-19T13:55:39.292Z,11.90
2023-12-19T14:05:39.400Z,12.00
2023-12-19T14:15:39.287Z,10.90
2023-12-19T14:25:39.289Z,10.80
2023-12-19T14:35:41.228Z,10.70
2023-12-19T14:45:39.575Z,12.00
2023-12-19T14:55:39.267Z,9.70
2023-12-19T15:05:39.964Z,10.90
2023-12-19T15:15:39.348Z,12.00
2023-12-19T15:25:39.507Z,13.60
2023-12-19T15:35:45.063Z,12.70
2023-12-19T15:45:42.263Z,13.60
2023-12-19T16:05:39.484Z,13.90
2023-12-19T16:15:39.343Z,13.70
2023-12-19T16:25:39.317Z,18.80
2023-12-19T16:35:39.332Z,15.90
2023-12-19T16:45:39.345Z,14.30
2023-12-19T16:55:39.316Z,14.70
2023-12-19T17:05:42.330Z,18.40
2023-12-19T17:15:39.369Z,13.40
2023-12-19T17:25:39.343Z,11.90
2023-12-19T17:35:40.001Z,11.60
2023-12-19T17:45:39.506Z,19.70
2023-12-19T17:55:39.365Z,24.20
2023-12-19T18:05:39.392Z,22.40
2023-12-19T18:15:39.428Z,36.30
2023-12-19T18:25:39.374Z,28.20
2023-12-19T18:35:39.396Z,36.70
2023-12-19T18:45:39.400Z,22.20
2023-12-19T18:55:39.333Z,21.10
2023-12-19T19:05:39.418Z,20.80
2023-12-19T19:15:39.426Z,23.00
2023-12-19T19:25:39.423Z,20.20
2023-12-19T19:45:39.500Z,19.90
2023-12-19T19:55:39.404Z,20.70
2023-12-19T20:05:39.399Z,18.60
2023-12-19T20:15:39.456Z,22.00
2023-12-19T20:25:39.385Z,19.80
2023-12-19T20:35:39.394Z,18.30
2023-12-19T20:45:39.421Z,19.40
2023-12-19T20:55:40.243Z,18.20
2023-12-19T21:05:39.428Z,18.30
2023-12-19T21:15:39.428Z,20.80
2023-12-19T21:25:39.410Z,20.50
2023-12-19T21:35:39.416Z,20.60
2023-12-19T21:45:39.428Z,20.30
2023-12-19T21:55:39.437Z,19.00
2023-12-19T22:05:39.502Z,20.50
2023-12-19T22:15:39.513Z,18.80
2023-12-19T22:25:39.419Z,19.90
2023-12-19T22:35:39.415Z,20.20
2023-12-19T22:55:39.602Z,20.30
2023-12-19T23:05:39.481Z,19.40
2023-12-19T23:35:39.500Z,20.30
2023-12-19T23:45:39.573Z,20.90
2023-12-19T23:55:39.500Z,18.50
